Time;durP1;ratioP1;P1;durP2;ratioP2;P2;SDS_P1;SDS_P2;PMS_P1;PMS_P2;Temp;Humidity;BMP_temperature;BMP_pressure;BME280_temperature;BME280_humidity;BME280_pressure;Samples;Min_cycle;Max_cycle;Signal;HPM_P1;HPM_P2
2021/11/08 00:01:48;;;;;;;19.13;5.80;;;;;;;7.83;76.13;100623.44;5063697;28;20489;-80
2021/11/08 00:04:15;;;;;;;19.90;6.40;;;;;;;7.68;77.51;100638.25;5067748;28;20079;-80
2021/11/08 00:06:43;;;;;;;17.10;5.60;;;;;;;7.71;77.38;100629.38;5077836;28;20059;-80
2021/11/08 00:09:10;;;;;;;25.27;6.68;;;;;;;7.78;77.77;100628.22;5070656;28;20052;-80
2021/11/08 00:11:39;;;;;;;20.75;5.93;;;;;;;7.68;77.85;100623.56;5064143;28;20052;-80
2021/11/08 00:14:09;;;;;;;27.70;6.50;;;;;;;7.86;76.78;100633.13;5064157;28;20060;-79
2021/11/08 00:16:42;;;;;;;24.20;6.78;;;;;;;7.80;77.09;100629.56;5071391;28;20061;-80
2021/11/08 00:19:27;;;;;;;19.98;7.30;;;;;;;7.87;77.00;100641.16;5071540;28;20052;-80
2021/11/08 00:21:56;;;;;;;23.80;5.75;;;;;;;8.03;76.44;100647.38;5069257;28;20414;-80
2021/11/08 00:24:25;;;;;;;22.47;6.20;;;;;;;8.07;76.81;100640.13;5078487;28;20135;-79
2021/11/08 00:26:54;;;;;;;23.77;6.78;;;;;;;8.11;76.90;100646.72;5078418;28;20052;-80
2021/11/08 00:29:21;;;;;;;19.55;6.40;;;;;;;8.17;76.18;100643.88;5065561;28;20072;-80
2021/11/08 00:31:49;;;;;;;21.40;6.65;;;;;;;8.13;76.18;100650.03;5078641;28;20057;-80
2021/11/08 00:34:17;;;;;;;22.83;6.68;;;;;;;8.21;75.97;100640.25;5078171;28;20060;-80
2021/11/08 00:36:45;;;;;;;23.15;6.45;;;;;;;8.27;75.79;100649.31;5077802;28;20413;-80
2021/11/08 00:39:13;;;;;;;20.77;7.80;;;;;;;8.27;76.02;100644.63;5078743;28;20524;-80
2021/11/08 00:41:40;;;;;;;23.95;6.68;;;;;;;8.33;75.78;100648.97;5063241;28;20139;-80
2021/11/08 00:44:08;;;;;;;22.33;7.45;;;;;;;8.45;75.38;100650.56;5075799;28;20076;-80
2021/11/08 00:46:35;;;;;;;18.55;6.47;;;;;;;8.58;75.13;100654.56;5077762;28;20458;-80
2021/11/08 00:49:04;;;;;;;22.05;6.93;;;;;;;8.53;75.08;100652.69;5073107;28;20399;-80
2021/11/08 00:51:36;;;;;;;20.20;7.32;;;;;;;8.56;74.97;100652.06;5073979;28;20056;-81
2021/11/08 00:54:08;;;;;;;18.92;7.32;;;;;;;8.74;74.34;100656.03;5077827;28;20052;-80
2021/11/08 00:56:36;;;;;;;21.52;6.55;;;;;;;8.60;74.35;100661.47;5078342;28;20056;-81
2021/11/08 00:59:06;;;;;;;22.45;6.40;;;;;;;8.77;73.72;100655.41;5066563;28;20057;-80
2021/11/08 01:01:34;;;;;;;15.73;6.30;;;;;;;8.72;74.07;100661.06;5075703;28;20061;-80
2021/11/08 01:04:02;;;;;;;18.63;6.40;;;;;;;8.76;74.13;100656.56;5077197;28;20071;-80
2021/11/08 01:06:29;;;;;;;16.92;5.45;;;;;;;8.81;73.22;100658.44;5077419;28;20059;-80
2021/11/08 01:08:58;;;;;;;21.05;6.47;;;;;;;8.66;73.97;100662.25;5065782;28;20068;-80
2021/11/08 01:11:25;;;;;;;25.48;6.70;;;;;;;8.75;73.72;100660.44;5058848;28;20064;-80
2021/11/08 01:13:53;;;;;;;19.48;5.93;;;;;;;8.69;73.65;100653.31;5068862;28;20056;-81
2021/11/08 01:16:24;;;;;;;22.25;6.80;;;;;;;8.61;75.02;100665.06;5055746;28;20109;-80
2021/11/08 01:18:54;;;;;;;18.02;6.40;;;;;;;8.67;74.77;100669.44;5065274;28;20060;-80
2021/11/08 01:21:22;;;;;;;19.83;7.97;;;;;;;8.81;74.32;100669.53;5064653;28;20059;-80
2021/11/08 01:23:51;;;;;;;17.63;6.15;;;;;;;8.88;74.14;100676.41;5077088;28;20056;-81
2021/11/08 01:26:19;;;;;;;21.25;6.90;;;;;;;8.91;73.74;100673.00;5069412;28;20053;-81
2021/11/08 01:28:48;;;;;;;20.00;7.18;;;;;;;8.81;73.94;100670.38;5056907;28;20426;-80
2021/11/08 01:31:17;;;;;;;20.27;6.40;;;;;;;8.87;73.58;100671.13;5072987;28;20064;-80
2021/11/08 01:33:47;;;;;;;17.85;7.25;;;;;;;8.99;73.58;100671.53;5077019;28;20057;-80
2021/11/08 01:36:17;;;;;;;18.92;7.18;;;;;;;8.93;73.68;100667.16;5077445;28;20057;-80
2021/11/08 01:38:47;;;;;;;15.05;6.30;;;;;;;8.90;73.43;100671.38;5076247;28;20064;-80
2021/11/08 01:41:17;;;;;;;19.65;7.47;;;;;;;8.94;73.69;100677.97;5076638;28;20075;-81
2021/11/08 01:43:46;;;;;;;20.90;7.45;;;;;;;8.85;74.05;100671.41;5072252;28;20045;-81
2021/11/08 01:46:14;;;;;;;24.83;7.22;;;;;;;8.68;74.97;100671.91;5062497;28;20049;-81
2021/11/08 01:48:42;;;;;;;19.88;7.55;;;;;;;8.80;74.31;100674.28;5066615;28;20049;-81
2021/11/08 01:51:10;;;;;;;21.90;7.72;;;;;;;8.91;73.94;100675.78;5069563;28;20067;-81
2021/11/08 01:53:38;;;;;;;20.65;7.97;;;;;;;8.86;73.86;100684.19;5077514;28;20064;-81
2021/11/08 01:56:06;;;;;;;17.88;7.22;;;;;;;8.96;74.00;100686.00;5077275;28;20417;-81
2021/11/08 01:58:35;;;;;;;19.10;8.10;;;;;;;9.00;73.78;100677.91;5068868;28;20060;-81
2021/11/08 02:01:05;;;;;;;15.30;7.55;;;;;;;8.91;73.61;100678.56;5058001;28;20064;-81
2021/11/08 02:03:33;;;;;;;22.13;7.70;;;;;;;9.08;73.14;100688.34;5069755;28;20052;-80
2021/11/08 02:06:00;;;;;;;19.52;7.85;;;;;;;9.07;73.41;100683.91;5064866;28;20077;-80
2021/11/08 02:08:29;;;;;;;23.60;8.00;;;;;;;9.12;73.39;100689.41;5059871;28;20070;-81
2021/11/08 02:10:57;;;;;;;22.10;8.43;;;;;;;9.13;73.06;100685.50;5075518;28;20394;-81
2021/11/08 02:13:25;;;;;;;17.58;7.88;;;;;;;9.16;73.17;100693.25;5076171;28;20064;-81
2021/11/08 02:15:53;;;;;;;21.33;7.93;;;;;;;9.27;72.86;100686.41;5076506;28;20508;-81
2021/11/08 02:18:23;;;;;;;19.83;7.63;;;;;;;9.15;73.13;100691.56;5075396;28;20067;-81
2021/11/08 02:20:55;;;;;;;25.15;8.57;;;;;;;9.32;72.84;100680.78;5074617;28;20075;-81
2021/11/08 02:23:25;;;;;;;18.92;8.15;;;;;;;9.38;73.10;100677.91;5075391;28;20057;-81
2021/11/08 02:25:55;;;;;;;21.73;8.90;;;;;;;9.38;72.58;100684.28;5075511;28;20060;-81
2021/11/08 02:28:23;;;;;;;20.13;8.90;;;;;;;9.48;72.56;100681.34;5075746;28;20052;-81
2021/11/08 02:30:54;;;;;;;20.73;9.70;;;;;;;9.57;72.16;100686.22;5076140;28;20060;-81
2021/11/08 02:33:22;;;;;;;24.80;10.63;;;;;;;9.59;72.25;100676.44;5073588;28;20053;-81
2021/11/08 02:35:50;;;;;;;27.05;9.38;;;;;;;9.63;72.16;100683.06;5064716;28;20056;-81
2021/11/08 02:38:22;;;;;;;20.23;9.90;;;;;;;9.63;72.06;100688.63;5076147;28;20071;-81
2021/11/08 02:40:51;;;;;;;20.55;10.40;;;;;;;9.63;72.33;100687.81;5063633;28;20060;-81
2021/11/08 02:43:22;;;;;;;22.30;10.00;;;;;;;9.63;72.19;100690.59;5066402;28;20162;-81
2021/11/08 02:45:57;;;;;;;23.98;9.90;;;;;;;9.69;71.80;100683.81;5056988;28;20053;-81
2021/11/08 02:48:25;;;;;;;22.45;11.55;;;;;;;9.60;71.62;100680.91;5071692;28;20060;-81
2021/11/08 02:51:04;;;;;;;28.80;10.40;;;;;;;9.53;72.30;100680.44;5076055;28;20048;-81
2021/11/08 02:53:35;;;;;;;21.35;10.38;;;;;;;9.48;72.31;100684.13;5075685;28;20060;-81
2021/11/08 02:56:04;;;;;;;18.35;10.40;;;;;;;9.48;72.50;100678.56;5075415;28;20516;-81
2021/11/08 02:58:31;;;;;;;23.73;11.75;;;;;;;9.49;72.09;100674.69;5076422;28;20060;-81
2021/11/08 03:00:59;;;;;;;23.90;11.00;;;;;;;9.41;72.76;100677.28;5071621;28;20057;-81
2021/11/08 03:03:34;;;;;;;23.17;11.18;;;;;;;9.60;72.11;100678.13;5066338;28;20053;-81
2021/11/08 03:06:09;;;;;;;30.45;11.60;;;;;;;9.57;72.30;100681.50;5074616;28;20052;-81
2021/11/08 03:08:38;;;;;;;25.25;11.30;;;;;;;9.64;72.21;100684.72;5075147;28;20061;-81
2021/11/08 03:11:05;;;;;;;29.40;11.67;;;;;;;9.59;72.65;100689.53;5074600;28;20053;-80
2021/11/08 03:13:34;;;;;;;25.27;11.63;;;;;;;9.58;72.49;100683.16;5074777;28;20056;-81
2021/11/08 03:16:10;;;;;;;26.13;11.70;;;;;;;9.65;72.20;100689.16;5074704;28;20071;-80
2021/11/08 03:18:40;;;;;;;23.38;12.25;;;;;;;9.73;72.23;100685.69;5070666;28;20064;-81
2021/11/08 03:21:15;;;;;;;34.35;13.80;;;;;;;9.69;71.89;100684.63;5074286;28;20060;-81
2021/11/08 03:23:45;;;;;;;24.25;12.80;;;;;;;9.72;71.49;100684.03;5075274;28;20063;-81
2021/11/08 03:26:27;;;;;;;27.92;12.45;;;;;;;9.62;72.12;100687.00;5063449;28;20061;-81
2021/11/08 03:28:55;;;;;;;29.48;12.27;;;;;;;9.70;71.85;100683.53;5075193;28;20053;-81
2021/11/08 03:31:23;;;;;;;25.45;12.57;;;;;;;9.67;71.99;100691.63;5075027;28;20061;-80
2021/11/08 03:33:50;;;;;;;23.92;12.55;;;;;;;9.63;72.01;100688.63;5074462;28;20056;-81
2021/11/08 03:36:17;;;;;;;27.92;13.48;;;;;;;9.74;72.04;100703.19;5074843;28;20057;-81
2021/11/08 03:38:46;;;;;;;33.33;14.15;;;;;;;9.49;72.13;100690.50;5076026;28;20052;-81
2021/11/08 03:41:14;;;;;;;29.33;13.80;;;;;;;9.60;72.48;100699.56;5074201;28;20394;-81
2021/11/08 03:43:41;;;;;;;27.52;13.57;;;;;;;9.63;72.40;100699.75;5063412;28;20517;-81
2021/11/08 03:46:13;;;;;;;27.65;14.38;;;;;;;9.53;72.44;100700.75;5059227;28;20053;-79
2021/11/08 03:48:41;;;;;;;29.05;15.02;;;;;;;9.55;72.68;100700.44;5077991;28;20060;-81
2021/11/08 03:51:09;;;;;;;28.02;14.13;;;;;;;9.41;72.86;100711.50;5076731;28;20060;-81
2021/11/08 03:53:37;;;;;;;34.53;16.40;;;;;;;9.34;73.25;100714.66;5057455;28;20057;-81
2021/11/08 03:56:07;;;;;;;30.00;15.85;;;;;;;9.49;72.81;100702.50;5069837;28;20615;-81
2021/11/08 03:58:35;;;;;;;32.50;15.90;;;;;;;9.40;73.51;100709.84;5078705;28;20056;-81
2021/11/08 04:01:02;;;;;;;38.05;17.02;;;;;;;9.40;73.04;100718.19;5070295;28;20056;-81
2021/11/08 04:03:30;;;;;;;31.30;16.58;;;;;;;9.38;72.79;100714.06;5076304;28;20057;-81
2021/11/08 04:05:58;;;;;;;39.83;17.30;;;;;;;9.24;73.98;100723.16;5077631;28;20052;-81
2021/11/08 04:08:25;;;;;;;33.40;16.60;;;;;;;9.07;74.38;100722.81;5078773;28;20067;-81
2021/11/08 04:10:55;;;;;;;34.10;17.60;;;;;;;9.27;73.85;100732.84;5068150;28;20425;-81
2021/11/08 04:13:29;;;;;;;30.80;17.25;;;;;;;9.41;73.45;100733.75;5076612;28;20155;-81
2021/11/08 04:15:58;;;;;;;33.20;16.63;;;;;;;9.42;73.68;100740.13;5078213;28;20505;-81
2021/11/08 04:18:27;;;;;;;36.65;16.95;;;;;;;9.48;73.04;100731.41;5077294;28;20060;-81
2021/11/08 04:20:57;;;;;;;39.95;18.13;;;;;;;9.46;73.43;100738.41;5078829;28;20607;-81
2021/11/08 04:23:25;;;;;;;36.45;17.50;;;;;;;9.54;73.18;100746.06;5077579;28;20068;-81
2021/11/08 04:25:54;;;;;;;32.65;18.13;;;;;;;9.60;72.89;100744.03;5078249;28;20053;-81
2021/11/08 04:28:23;;;;;;;38.63;18.25;;;;;;;9.40;73.76;100742.38;5078125;28;20063;-81
2021/11/08 04:30:51;;;;;;;33.78;16.80;;;;;;;9.50;72.94;100736.69;5076674;28;20071;-81
2021/11/08 04:33:33;;;;;;;38.50;16.25;;;;;;;9.43;74.04;100734.28;5072823;28;20052;-81
2021/11/08 04:36:12;;;;;;;32.65;17.17;;;;;;;9.59;73.42;100737.63;5058753;28;20057;-81
2021/11/08 04:38:59;;;;;;;40.85;17.48;;;;;;;9.67;72.88;100736.13;5068040;28;20052;-81
2021/11/08 04:41:35;;;;;;;37.53;17.25;;;;;;;9.56;72.58;100729.91;5068253;28;20053;-81
2021/11/08 04:44:36;;;;;;;32.30;16.23;;;;;;;9.61;72.55;100729.81;5058880;28;20068;-81
2021/11/08 04:47:32;;;;;;;35.45;15.65;;;;;;;9.64;72.59;100728.38;5067254;28;20059;-81
2021/11/08 04:50:08;;;;;;;32.08;16.17;;;;;;;9.54;72.85;100741.31;5078181;28;20064;-81
2021/11/08 04:52:51;;;;;;;32.00;16.90;;;;;;;9.60;72.86;100730.97;5077415;28;20059;-81
2021/11/08 04:55:27;;;;;;;35.40;17.65;;;;;;;9.61;72.50;100732.59;5072433;28;20409;-81
2021/11/08 05:22:56;;;;;;;39.58;19.88;;;;;;;8.77;74.26;100738.72;5077902;28;20056;-80
2021/11/08 05:27:49;;;;;;;39.03;19.35;;;;;;;8.70;74.25;100746.59;5077078;28;20053;-80
2021/11/08 05:28:37;;;;;;;37.05;18.67;;;;;;;8.77;74.60;100754.59;5064337;28;20056;-80
2021/11/08 05:31:05;;;;;;;41.50;19.38;;;;;;;8.79;74.03;100755.13;5074949;28;20045;-80
2021/11/08 05:33:33;;;;;;;39.35;19.23;;;;;;;8.56;75.19;100754.81;5066711;28;20052;-80
2021/11/08 05:36:01;;;;;;;40.90;19.13;;;;;;;8.70;74.29;100764.09;5076690;28;20063;-80
2021/11/08 05:38:29;;;;;;;41.80;19.80;;;;;;;8.60;74.54;100757.81;5077894;28;20053;-80
2021/11/08 05:40:56;;;;;;;47.50;19.80;;;;;;;8.61;74.54;100776.13;5073909;28;20060;-80
2021/11/08 05:43:23;;;;;;;40.85;18.98;;;;;;;8.58;74.74;100769.22;5059757;28;20159;-80
2021/11/08 05:45:51;;;;;;;42.35;19.75;;;;;;;8.63;74.76;100771.97;5064509;28;20072;-80
2021/11/08 05:48:18;;;;;;;41.40;19.55;;;;;;;8.65;74.67;100774.41;5076128;28;20057;-80
2021/11/08 05:50:46;;;;;;;45.28;21.15;;;;;;;8.58;75.44;100773.94;5060524;28;20068;-80
2021/11/08 05:53:15;;;;;;;42.67;19.95;;;;;;;8.67;74.97;100777.72;5056774;28;20053;-80
2021/11/08 05:55:46;;;;;;;48.53;20.58;;;;;;;8.71;74.89;100782.44;5075206;28;20068;-80
2021/11/08 06:50:38;;;;;;;27.60;15.90;;;;;;;8.99;73.02;100824.34;5075639;28;20418;-80
2021/11/08 06:53:07;;;;;;;28.77;15.40;;;;;;;8.99;73.19;100827.13;5072441;28;20420;-80
2021/11/08 06:55:36;;;;;;;33.22;16.50;;;;;;;8.99;73.08;100827.13;5072099;28;20056;-81
2021/11/08 06:58:11;;;;;;;29.50;15.07;;;;;;;8.98;73.47;100828.22;5074590;28;20505;-80
2021/11/08 07:00:39;;;;;;;35.67;15.60;;;;;;;8.97;73.57;100832.13;5073502;28;20067;-84
2021/11/08 07:03:06;;;;;;;32.85;15.73;;;;;;;8.84;74.16;100836.44;5075491;28;20500;-82
2021/11/08 07:05:34;;;;;;;33.72;16.08;;;;;;;8.81;74.54;100836.19;5058420;28;20053;-81
2021/11/08 07:08:01;;;;;;;42.17;15.90;;;;;;;8.84;74.92;100827.25;5057659;28;20064;-80
2021/11/08 07:10:29;;;;;;;34.63;15.15;;;;;;;8.97;74.37;100836.88;5060212;28;20056;-80
2021/11/08 07:12:56;;;;;;;33.22;15.45;;;;;;;9.02;74.28;100831.25;5066816;28;20057;-80
2021/11/08 07:15:26;;;;;;;31.67;14.85;;;;;;;9.03;74.38;100832.88;5054156;28;20057;-80
2021/11/08 07:17:54;;;;;;;32.40;15.15;;;;;;;9.13;73.42;100839.19;5062740;28;20057;-79
2021/11/08 07:20:23;;;;;;;29.30;15.23;;;;;;;9.14;73.51;100853.91;5072138;28;20075;-80
2021/11/08 07:22:51;;;;;;;35.17;15.65;;;;;;;9.09;73.67;100851.16;5073077;28;20489;-80
2021/11/08 07:25:19;;;;;;;29.45;14.98;;;;;;;9.11;74.00;100858.09;5066073;28;20056;-81
2021/11/08 07:27:47;;;;;;;32.22;14.77;;;;;;;9.08;74.24;100866.19;5066874;28;20067;-81
2021/11/08 07:30:15;;;;;;;30.85;15.32;;;;;;;9.16;73.62;100864.72;5069231;28;20052;-82
2021/11/08 07:32:43;;;;;;;31.70;14.27;;;;;;;9.27;73.34;100869.84;5066261;28;20432;-80
2021/11/08 07:35:11;;;;;;;35.17;15.75;;;;;;;9.23;73.86;100871.56;5070680;28;20056;-80
2021/11/08 07:37:39;;;;;;;31.48;15.40;;;;;;;9.31;73.32;100873.69;5072817;28;20056;-83
2021/11/08 07:40:08;;;;;;;35.65;15.63;;;;;;;9.36;73.02;100870.03;5060542;28;20064;-79
2021/11/08 07:42:35;;;;;;;34.23;16.00;;;;;;;9.47;72.63;100873.50;5068833;28;20063;-79
2021/11/08 07:45:03;;;;;;;32.22;15.57;;;;;;;9.56;72.36;100874.50;5070487;28;20053;-78
2021/11/08 07:47:31;;;;;;;33.83;16.77;;;;;;;9.63;72.17;100868.59;5072751;28;20080;-78
2021/11/08 07:49:59;;;;;;;32.42;16.20;;;;;;;9.73;72.03;100874.00;5074544;28;20052;-80
2021/11/08 07:52:29;;;;;;;28.20;15.18;;;;;;;10.22;71.25;100885.84;5070272;28;20163;-80
2021/11/08 07:54:56;;;;;;;31.45;14.57;;;;;;;10.49;70.65;100880.41;5072117;28;20065;-81
2021/11/08 07:57:24;;;;;;;29.27;13.93;;;;;;;10.89;68.90;100882.78;5072672;28;20393;-82
2021/11/08 07:59:52;;;;;;;25.85;14.27;;;;;;;11.02;68.02;100887.56;5072758;28;20053;-80
2021/11/08 08:02:19;;;;;;;25.50;13.57;;;;;;;11.86;65.98;100882.81;5071912;28;20056;-81
2021/11/08 08:04:47;;;;;;;28.85;13.05;;;;;;;11.43;67.78;100885.97;5073004;28;20060;-76
2021/11/08 08:07:15;;;;;;;27.60;13.57;;;;;;;11.53;66.05;100886.56;5058571;28;20049;-78
2021/11/08 08:09:43;;;;;;;21.17;12.77;;;;;;;12.32;62.63;100890.97;5064721;28;20071;-76
2021/11/08 08:12:11;;;;;;;26.17;12.60;;;;;;;12.61;61.79;100891.69;5055000;28;20067;-78
2021/11/08 08:14:38;;;;;;;29.50;11.75;;;;;;;13.21;60.52;100899.63;5064610;28;20052;-78
2021/11/08 08:17:06;;;;;;;26.02;12.30;;;;;;;13.77;59.05;100898.06;5070232;28;20052;-78
2021/11/08 08:19:33;;;;;;;24.13;11.55;;;;;;;13.69;58.96;100910.06;5059672;28;20064;-78
2021/11/08 08:22:02;;;;;;;21.85;11.98;;;;;;;13.97;57.66;100904.19;5062303;28;20421;-76
2021/11/08 08:24:30;;;;;;;26.92;12.98;;;;;;;14.61;56.08;100911.97;5057044;28;20053;-77
2021/11/08 08:27:03;;;;;;;25.75;12.00;;;;;;;15.41;54.71;100912.28;5069570;28;20057;-76
2021/11/08 08:29:30;;;;;;;24.27;11.85;;;;;;;15.63;53.29;100914.00;5069138;28;20059;-78
2021/11/08 08:31:58;;;;;;;19.40;11.50;;;;;;;15.38;53.37;100923.38;5074569;28;20060;-78
2021/11/08 08:34:25;;;;;;;21.70;12.13;;;;;;;15.63;52.43;100910.38;5070234;28;20052;-77
2021/11/08 08:36:53;;;;;;;23.40;10.63;;;;;;;16.43;50.76;100918.78;5073214;28;20517;-77
2021/11/08 08:39:21;;;;;;;18.63;9.95;;;;;;;16.54;49.91;100916.38;5073663;28;20064;-77
2021/11/08 08:41:50;;;;;;;17.48;9.93;;;;;;;16.59;50.32;100915.38;5071545;28;20071;-77
2021/11/08 08:44:20;;;;;;;22.55;9.57;;;;;;;17.77;48.06;100925.16;5063688;28;20434;-78
2021/11/08 08:46:48;;;;;;;21.13;9.90;;;;;;;17.80;47.33;100924.44;5065519;28;20502;-77
2021/11/08 08:49:17;;;;;;;23.30;10.30;;;;;;;18.61;46.28;100913.28;5066896;28;20057;-77
2021/11/08 08:51:45;;;;;;;15.65;9.32;;;;;;;19.01;44.89;100915.25;5073710;28;20794;-77
2021/11/08 08:54:13;;;;;;;17.85;9.07;;;;;;;18.53;45.41;100921.91;5066845;28;20060;-77
2021/11/08 08:56:40;;;;;;;19.20;9.93;;;;;;;18.76;44.37;100919.34;5073897;28;20456;-77
2021/11/08 08:59:09;;;;;;;20.20;9.77;;;;;;;18.04;45.46;100929.28;5071524;28;20056;-77
2021/11/08 09:01:37;;;;;;;21.90;10.02;;;;;;;17.75;45.63;100932.31;5072587;28;20048;-80
2021/11/08 09:04:05;;;;;;;18.85;9.73;;;;;;;16.61;49.10;100927.91;5068064;28;20057;-78
2021/11/08 09:06:33;;;;;;;21.45;9.68;;;;;;;16.70;48.43;100924.22;5074093;28;20052;-78
2021/11/08 09:09:00;;;;;;;21.23;9.75;;;;;;;15.94;50.25;100940.16;5064229;28;20057;-77
2021/11/08 09:11:28;;;;;;;22.85;9.93;;;;;;;16.01;50.40;100935.63;5062394;28;20061;-78
2021/11/08 09:13:58;;;;;;;20.27;9.45;;;;;;;15.34;51.86;100950.44;5061293;28;20060;-79
2021/11/08 09:16:26;;;;;;;20.02;10.00;;;;;;;14.90;52.94;100942.13;5073365;28;20076;-78
2021/11/08 09:18:54;;;;;;;20.80;9.37;;;;;;;14.89;53.08;100946.09;5068192;28;20068;-79
2021/11/08 09:21:24;;;;;;;22.08;9.32;;;;;;;14.73;53.56;100936.56;5059665;28;20064;-79
2021/11/08 09:23:51;;;;;;;;;;;;;;;14.33;54.65;100933.88;5075125;28;20057;-78
2021/11/08 09:26:20;;;;;;;22.85;10.15;;;;;;;14.55;55.11;100930.97;5070324;28;19924;-80
2021/11/08 09:28:48;;;;;;;21.70;10.95;;;;;;;14.37;55.25;100935.69;5069699;28;20063;-78
2021/11/08 09:31:15;;;;;;;21.20;10.02;;;;;;;14.06;56.03;100935.81;5073661;28;20509;-79
2021/11/08 09:33:44;;;;;;;23.25;10.00;;;;;;;14.07;56.24;100937.47;5073573;28;20052;-78
2021/11/08 09:36:13;;;;;;;18.90;8.73;;;;;;;15.47;52.81;100942.97;5074258;28;20057;-79
2021/11/08 09:38:49;;;;;;;22.90;9.30;;;;;;;17.16;49.38;100944.81;5066856;28;20053;-80
2021/11/08 09:41:18;;;;;;;17.52;8.57;;;;;;;18.08;46.45;100937.88;5068264;28;20056;-80
2021/11/08 09:43:47;;;;;;;14.45;7.22;;;;;;;18.88;44.09;100939.06;5066932;28;20053;-80
2021/11/08 09:46:16;;;;;;;21.52;9.02;;;;;;;19.61;43.01;100943.47;5073950;28;20064;-81
2021/11/08 09:48:45;;;;;;;16.70;7.20;;;;;;;20.33;41.05;100945.22;5074508;28;20473;-80
2021/11/08 09:51:14;;;;;;;19.67;8.25;;;;;;;20.90;39.73;100939.16;5071294;28;20489;-80
2021/11/08 09:53:43;;;;;;;17.17;8.52;;;;;;;21.35;38.64;100938.41;5075595;28;20119;-79
2021/11/08 09:56:11;;;;;;;16.80;7.22;;;;;;;21.07;38.04;100939.50;5071424;28;20444;-79
2021/11/08 09:58:39;;;;;;;15.07;8.63;;;;;;;20.88;39.04;100933.88;5070195;28;20051;-78
2021/11/08 10:01:10;;;;;;;16.73;7.32;;;;;;;20.75;39.48;100938.88;5068864;28;20056;-77
2021/11/08 10:03:41;;;;;;;19.08;7.70;;;;;;;20.84;38.90;100936.63;5072161;28;20497;-79
2021/11/08 10:06:09;;;;;;;16.05;8.07;;;;;;;20.42;39.10;100936.50;5071650;28;20064;-79
2021/11/08 10:08:41;;;;;;;19.08;7.55;;;;;;;20.27;39.48;100927.69;5069271;28;20119;-79
2021/11/08 10:11:11;;;;;;;18.00;8.45;;;;;;;21.77;36.79;100926.19;5073112;28;20067;-79
2021/11/08 10:13:39;;;;;;;15.40;7.53;;;;;;;22.36;36.01;100929.53;5072919;28;20068;-78
2021/11/08 10:16:09;;;;;;;15.40;7.10;;;;;;;23.07;34.46;100923.97;5061374;28;20052;-79
2021/11/08 10:18:39;;;;;;;15.00;7.07;;;;;;;23.56;34.99;100915.50;5066171;28;20057;-79
2021/11/08 10:21:12;;;;;;;16.50;7.45;;;;;;;24.50;33.01;100921.50;5073377;28;20540;-79
2021/11/08 10:23:42;;;;;;;13.60;6.60;;;;;;;24.63;32.00;100932.53;5065569;28;20056;-79
2021/11/08 10:26:12;;;;;;;16.45;6.10;;;;;;;24.39;32.15;100936.88;5071600;28;20057;-78
2021/11/08 10:28:40;;;;;;;17.65;6.57;;;;;;;23.42;33.93;100931.25;5071644;28;20063;-78
2021/11/08 10:31:16;;;;;;;17.83;6.57;;;;;;;23.17;33.91;100939.50;5070879;28;20060;-78
2021/11/08 10:33:43;;;;;;;15.27;6.75;;;;;;;22.02;35.80;100943.63;5052922;28;20057;-79
2021/11/08 10:36:15;;;;;;;16.52;6.28;;;;;;;21.53;36.62;100949.28;5060140;28;20053;-77
2021/11/08 10:38:44;;;;;;;12.45;5.78;;;;;;;22.09;36.51;100954.28;5065881;28;20057;-78
2021/11/08 10:41:15;;;;;;;15.60;6.30;;;;;;;21.71;38.09;100936.22;5066536;28;20061;-78
2021/11/08 10:43:48;;;;;;;14.68;5.40;;;;;;;21.08;38.68;100941.16;5066955;28;20056;-77
2021/11/08 10:46:18;;;;;;;12.13;5.30;;;;;;;20.57;39.58;100949.78;5068423;28;20049;-78
2021/11/08 10:48:48;;;;;;;16.70;5.57;;;;;;;20.07;40.14;100954.28;5064299;28;20052;-78
2021/11/08 10:51:23;;;;;;;14.77;5.47;;;;;;;19.59;41.99;100954.31;5067462;28;20053;-77
2021/11/08 10:53:53;;;;;;;17.50;5.22;;;;;;;18.67;42.99;100954.16;5064648;28;20522;-78
2021/11/08 10:56:24;;;;;;;14.68;5.22;;;;;;;18.31;43.53;100952.28;5065571;28;20452;-77
2021/11/08 10:58:52;;;;;;;13.95;4.18;;;;;;;17.77;44.83;100947.69;5066228;28;20066;-79
2021/11/08 11:01:25;;;;;;;14.23;3.70;;;;;;;17.44;44.74;100940.16;5067584;28;20067;-82
2021/11/08 11:03:57;;;;;;;7.30;3.22;;;;;;;16.57;45.84;100924.16;5064831;28;20079;-78
2021/11/08 11:06:39;;;;;;;10.30;3.92;;;;;;;15.90;46.99;100913.91;5067599;28;20063;-78
2021/11/08 11:09:27;;;;;;;12.75;3.42;;;;;;;15.76;46.71;100926.19;5064728;28;20056;-78
2021/11/08 11:12:11;;;;;;;12.88;3.55;;;;;;;15.20;48.32;100923.44;5070975;28;20060;-82
2021/11/08 11:14:41;;;;;;;10.38;3.70;;;;;;;15.24;48.87;100931.97;5068669;28;20067;-77
2021/11/08 11:17:11;;;;;;;13.40;5.47;;;;;;;15.11;49.67;100924.59;5067451;28;20064;-77
2021/11/08 11:19:41;;;;;;;10.13;4.78;;;;;;;15.18;49.97;100933.31;5055718;28;20061;-77
2021/11/08 11:22:14;;;;;;;14.73;4.38;;;;;;;15.10;50.67;100931.34;5060420;28;20108;-77
2021/11/08 11:24:46;;;;;;;11.10;4.00;;;;;;;15.56;50.26;100930.56;5056918;28;20068;-77
2021/11/08 11:27:28;;;;;;;12.52;4.78;;;;;;;17.24;46.57;100932.63;5057890;28;20060;-77
2021/11/08 11:30:12;;;;;;;12.05;4.53;;;;;;;19.99;41.88;100915.72;5056583;28;20414;-78
2021/11/08 11:32:39;;;;;;;12.07;4.57;;;;;;;21.19;39.33;100920.72;5062049;28;20049;-78
2021/11/08 11:35:12;;;;;;;13.98;4.35;;;;;;;21.83;36.95;100916.16;5067307;28;20060;-78
2021/11/08 11:37:41;;;;;;;12.98;4.15;;;;;;;23.03;35.87;100919.47;5061436;28;20059;-77
2021/11/08 11:40:12;;;;;;;15.90;4.47;;;;;;;24.16;33.15;100915.19;5063453;28;20464;-77
2021/11/08 11:42:47;;;;;;;15.65;4.55;;;;;;;23.27;33.11;100913.22;5066772;28;20061;-78
2021/11/08 11:45:14;;;;;;;13.05;4.55;;;;;;;22.40;34.76;100926.75;5068016;28;20048;-78
2021/11/08 11:47:45;;;;;;;14.27;4.53;;;;;;;21.71;35.69;100924.88;5061249;28;20056;-78
2021/11/08 11:50:12;;;;;;;11.73;4.25;;;;;;;20.80;37.46;100915.91;5054940;28;20056;-78
2021/11/08 11:52:43;;;;;;;13.48;4.70;;;;;;;20.08;38.29;100922.81;5056413;28;20068;-78
2021/11/08 11:55:11;;;;;;;11.13;3.58;;;;;;;19.56;39.27;100929.59;5068441;28;20057;-78
2021/11/08 11:57:39;;;;;;;12.20;4.25;;;;;;;19.34;39.45;100921.75;5066896;28;20406;-78
2021/11/08 12:00:08;;;;;;;11.57;3.63;;;;;;;19.15;39.62;100925.28;5059718;28;20049;-77
2021/11/08 12:02:36;;;;;;;11.93;3.22;;;;;;;18.84;39.58;100930.50;5061546;28;20067;-77
2021/11/08 12:05:03;;;;;;;11.48;4.55;;;;;;;18.48;41.08;100931.44;5062864;28;20048;-78
2021/11/08 12:07:32;;;;;;;13.70;4.00;;;;;;;18.21;41.80;100936.66;5065599;28;20060;-78
2021/11/08 12:10:01;;;;;;;13.57;3.90;;;;;;;17.92;42.94;100929.28;5069343;28;20409;-78
2021/11/08 12:12:28;;;;;;;12.93;3.80;;;;;;;17.73;42.98;100934.69;5064103;28;20067;-77
2021/11/08 12:14:57;;;;;;;9.57;3.47;;;;;;;17.55;43.37;100926.44;5060859;28;20060;-77
2021/11/08 12:17:25;;;;;;;9.43;3.28;;;;;;;17.39;43.99;100926.31;5072657;28;20536;-77
2021/11/08 12:20:05;;;;;;;10.98;3.38;;;;;;;17.30;44.41;100921.94;5065767;28;20056;-77
2021/11/08 12:22:33;;;;;;;10.55;3.53;;;;;;;17.14;44.07;100930.25;5067033;28;20055;-78
2021/11/08 12:25:07;;;;;;;11.77;4.15;;;;;;;16.58;45.61;100924.97;5070452;28;20057;-78
2021/11/08 12:27:37;;;;;;;13.93;4.10;;;;;;;16.29;45.98;100920.22;5072531;28;20120;-79
2021/11/08 12:30:11;;;;;;;13.88;3.40;;;;;;;16.42;46.37;100922.78;5073141;28;20056;-79
2021/11/08 12:32:43;;;;;;;11.02;4.10;;;;;;;16.26;46.78;100918.13;5070575;28;20526;-79
2021/11/08 12:35:16;;;;;;;14.90;3.90;;;;;;;16.18;46.56;100923.44;5071686;28;20061;-79
2021/11/08 12:37:44;;;;;;;11.10;3.10;;;;;;;16.17;46.76;100921.81;5076161;28;20060;-79
2021/11/08 12:40:14;;;;;;;12.10;3.78;;;;;;;16.11;47.13;100917.56;5072858;28;20053;-79
2021/11/08 12:42:44;;;;;;;12.23;3.50;;;;;;;16.10;47.52;100912.28;5072230;28;20056;-79
2021/11/08 12:45:14;;;;;;;12.68;4.35;;;;;;;16.06;47.82;100914.94;5056081;28;20616;-79
2021/11/08 12:47:42;;;;;;;12.00;3.67;;;;;;;15.98;47.85;100918.63;5074651;28;20071;-79
2021/11/08 12:50:10;;;;;;;12.57;3.90;;;;;;;15.89;47.89;100915.88;5073956;28;20382;-79